Time;durP1;ratioP1;P1;durP2;ratioP2;P2;SDS_P1;SDS_P2;PMS_P1;PMS_P2;Temp;Humidity;BMP_temperature;BMP_pressure;BME280_temperature;BME280_humidity;BME280_pressure;Samples;Min_cycle;Max_cycle;Signal;HPM_P1;HPM_P2
2023/10/07 00:01:56;;;;;;;2.75;1.55;;;;;;;14.04;100.00;98792.25;15278161;19;20027;-47
2023/10/07 00:07:30;;;;;;;3.65;1.60;;;;;;;14.00;100.00;98794.41;15275378;19;20043;-49
2023/10/07 00:12:57;;;;;;;2.38;1.60;;;;;;;13.98;100.00;98790.22;15277972;19;20353;-52
2023/10/07 00:18:23;;;;;;;2.50;1.52;;;;;;;13.93;100.00;98779.06;15274372;19;20022;-49
2023/10/07 00:23:52;;;;;;;3.10;1.60;;;;;;;13.87;100.00;98786.03;15293816;19;20018;-52
2023/10/07 00:29:21;;;;;;;2.60;1.60;;;;;;;13.81;100.00;98787.56;15281783;19;20021;-50
2023/10/07 00:34:47;;;;;;;2.08;1.45;;;;;;;13.75;100.00;98790.13;15290044;19;20024;-52
2023/10/07 00:40:30;;;;;;;2.45;1.55;;;;;;;13.68;100.00;98774.53;15292671;19;20024;-50
2023/10/07 00:46:06;;;;;;;3.70;2.20;;;;;;;13.74;100.00;98783.84;15290553;19;20415;-47
2023/10/07 00:51:42;;;;;;;2.58;1.70;;;;;;;13.76;100.00;98783.69;15287931;19;20082;-47
2023/10/07 00:57:10;;;;;;;2.78;1.80;;;;;;;13.77;100.00;98772.66;15283132;19;20026;-46
2023/10/07 01:02:37;;;;;;;2.75;1.70;;;;;;;13.73;100.00;98765.91;15284380;19;20007;-47
2023/10/07 01:08:06;;;;;;;3.17;1.70;;;;;;;13.73;100.00;98773.19;15282004;19;20508;-46
2023/10/07 01:13:34;;;;;;;1.90;1.50;;;;;;;13.66;100.00;98764.91;15288333;19;20098;-46
2023/10/07 01:19:13;;;;;;;2.75;1.70;;;;;;;13.61;100.00;98757.31;15283085;19;20014;-46
2023/10/07 01:24:49;;;;;;;2.92;1.80;;;;;;;13.54;100.00;98761.72;15288215;19;20025;-49
2023/10/07 01:30:23;;;;;;;2.33;1.73;;;;;;;13.51;100.00;98762.06;15289374;19;20031;-48
2023/10/07 01:36:06;;;;;;;2.38;1.45;;;;;;;13.46;100.00;98765.28;15278426;19;20292;-48
2023/10/07 01:41:38;;;;;;;2.78;1.80;;;;;;;13.43;100.00;98765.63;15285462;19;20039;-50
2023/10/07 01:47:03;;;;;;;2.67;1.65;;;;;;;13.40;100.00;98765.97;15284496;19;20278;-46
2023/10/07 01:52:28;;;;;;;2.45;1.58;;;;;;;13.38;100.00;98767.97;15286904;19;20021;-46
2023/10/07 01:57:56;;;;;;;2.65;1.50;;;;;;;13.33;100.00;98775.75;15283031;19;20014;-47
2023/10/07 02:03:23;;;;;;;2.75;1.63;;;;;;;13.29;100.00;98779.81;15285638;19;20019;-47
2023/10/07 02:08:50;;;;;;;2.53;1.70;;;;;;;13.22;100.00;98764.28;15276894;19;20022;-46
2023/10/07 02:14:21;;;;;;;4.10;1.50;;;;;;;13.22;100.00;98758.88;15282927;19;20025;-46
2023/10/07 02:19:47;;;;;;;2.10;1.70;;;;;;;13.21;100.00;98773.41;15284578;19;20014;-48
2023/10/07 02:25:20;;;;;;;2.95;1.70;;;;;;;13.16;100.00;98780.34;15284190;19;20023;-46
2023/10/07 02:30:51;;;;;;;2.25;1.70;;;;;;;13.12;100.00;98782.50;15286029;19;20024;-49
2023/10/07 02:36:28;;;;;;;2.13;1.60;;;;;;;13.16;100.00;98775.75;15283838;19;20098;-49
2023/10/07 02:41:53;;;;;;;2.47;1.65;;;;;;;13.16;100.00;98775.75;15274476;19;20490;-48
2023/10/07 02:47:21;;;;;;;3.15;1.65;;;;;;;13.15;100.00;98770.53;15277850;19;20474;-45
2023/10/07 02:52:46;;;;;;;2.67;1.80;;;;;;;13.10;100.00;98779.16;15283137;19;20018;-49
2023/10/07 02:58:13;;;;;;;2.83;1.80;;;;;;;13.09;100.00;98769.34;15279022;19;20551;-45
2023/10/07 03:03:48;;;;;;;2.92;1.70;;;;;;;13.07;100.00;98771.38;15285032;19;20098;-48
2023/10/07 03:09:18;;;;;;;2.92;1.83;;;;;;;13.05;100.00;98762.56;15276265;19;20015;-47
2023/10/07 03:14:43;;;;;;;2.13;1.58;;;;;;;13.04;100.00;98761.75;15278513;19;20015;-47
2023/10/07 03:26:05;;;;;;;2.55;1.90;;;;;;;13.04;100.00;98766.28;15278567;19;20022;-46
2023/10/07 03:31:39;;;;;;;2.23;1.60;;;;;;;13.04;100.00;98764.44;15278400;19;20029;-46
2023/10/07 03:37:18;;;;;;;3.10;1.80;;;;;;;13.03;100.00;98784.38;15279465;19;20090;-48
2023/10/07 03:42:44;;;;;;;3.15;1.75;;;;;;;13.00;100.00;98779.31;15274570;19;20018;-48
2023/10/07 03:48:23;;;;;;;2.97;1.80;;;;;;;12.99;100.00;98771.38;15276528;19;20035;-50
2023/10/07 03:53:55;;;;;;;2.30;1.60;;;;;;;12.97;100.00;98760.72;15284295;19;20098;-48
2023/10/07 03:59:19;;;;;;;3.03;2.10;;;;;;;12.94;100.00;98756.50;15288532;19;20014;-48
2023/10/07 04:04:45;;;;;;;3.25;2.00;;;;;;;12.94;100.00;98764.59;15294940;19;20604;-47
2023/10/07 04:10:20;;;;;;;2.88;1.70;;;;;;;12.88;100.00;98759.84;15295176;19;20014;-49
2023/10/07 04:15:51;;;;;;;2.17;1.80;;;;;;;12.84;100.00;98746.84;15287848;19;20041;-46
2023/10/07 04:21:15;;;;;;;2.92;2.00;;;;;;;12.74;100.00;98737.03;15293041;19;20018;-51
2023/10/07 04:26:51;;;;;;;1.95;1.63;;;;;;;12.70;100.00;98742.94;14778556;19;10001437;-48
2023/10/07 04:32:21;;;;;;;3.42;2.20;;;;;;;12.64;100.00;98737.19;15287642;19;20011;-46
2023/10/07 04:37:54;;;;;;;3.55;2.10;;;;;;;12.61;100.00;98733.97;15284647;19;20339;-45
2023/10/07 04:43:36;;;;;;;2.95;1.90;;;;;;;12.60;100.00;98737.69;15290277;19;20021;-49
2023/10/07 04:49:12;;;;;;;3.33;2.22;;;;;;;12.55;100.00;98749.00;15277031;19;20014;-48
2023/10/07 04:54:46;;;;;;;3.47;2.30;;;;;;;12.50;100.00;98756.78;15280636;19;20364;-48
2023/10/07 05:00:27;;;;;;;2.47;1.98;;;;;;;12.37;100.00;98751.00;15287364;19;20014;-47
2023/10/07 05:05:55;;;;;;;3.13;2.22;;;;;;;12.27;100.00;98738.47;15284155;19;20032;-47
2023/10/07 05:11:26;;;;;;;4.22;2.17;;;;;;;12.21;100.00;98741.81;15289913;19;20025;-47
2023/10/07 05:16:58;;;;;;;3.40;2.15;;;;;;;12.11;100.00;98733.84;15288763;19;20022;-45
2023/10/07 05:22:23;;;;;;;3.40;2.03;;;;;;;12.09;100.00;98735.03;15283781;19;20421;-49
2023/10/07 05:27:47;;;;;;;4.20;2.17;;;;;;;12.10;100.00;98734.88;15285770;19;20058;-50
2023/10/07 05:33:15;;;;;;;2.53;1.80;;;;;;;12.13;100.00;98731.00;15290506;19;20022;-46
2023/10/07 05:38:40;;;;;;;3.13;1.80;;;;;;;12.29;100.00;98727.50;15284739;19;20025;-49
2023/10/07 05:44:05;;;;;;;3.17;1.70;;;;;;;12.74;100.00;98742.44;15290008;19;20086;-48
2023/10/07 05:49:33;;;;;;;2.75;1.52;;;;;;;12.90;100.00;98741.59;15281955;19;20028;-47
2023/10/07 05:55:06;;;;;;;3.42;1.80;;;;;;;13.04;100.00;98744.66;15280667;19;20035;-48
2023/10/07 06:00:32;;;;;;;2.78;1.70;;;;;;;13.18;100.00;98749.38;15283035;19;20007;-51
2023/10/07 06:05:59;;;;;;;2.25;1.60;;;;;;;13.31;100.00;98746.16;15283688;19;20014;-53
2023/10/07 06:11:31;;;;;;;1.58;1.40;;;;;;;13.40;100.00;98750.59;15285373;19;20020;-48
2023/10/07 06:16:56;;;;;;;2.95;1.63;;;;;;;13.51;100.00;98746.66;15281228;19;20019;-52
2023/10/07 06:22:24;;;;;;;3.20;1.98;;;;;;;13.49;100.00;98748.69;15285489;19;20558;-54
2023/10/07 06:27:50;;;;;;;3.43;2.17;;;;;;;13.41;100.00;98762.25;15075585;19;1005571;-48
2023/10/07 06:33:15;;;;;;;4.03;2.03;;;;;;;13.33;100.00;98764.94;15283318;19;20074;-49
2023/10/07 06:38:45;;;;;;;4.25;2.03;;;;;;;13.38;100.00;98755.28;15279614;19;20078;-51
2023/10/07 06:44:11;;;;;;;5.88;1.85;;;;;;;13.41;100.00;98759.53;15284800;19;20014;-49
2023/10/07 06:49:39;;;;;;;2.33;1.90;;;;;;;13.43;100.00;98753.94;15281942;19;20024;-49
2023/10/07 06:55:15;;;;;;;3.47;1.85;;;;;;;13.47;100.00;98750.72;15281672;19;20074;-50
2023/10/07 07:00:47;;;;;;;2.95;1.90;;;;;;;13.51;100.00;98760.19;15274212;19;20010;-52
2023/10/07 07:06:17;;;;;;;2.65;1.90;;;;;;;13.59;100.00;98763.91;15278484;19;20041;-53
2023/10/07 07:11:44;;;;;;;4.07;1.85;;;;;;;13.70;100.00;98755.44;15271328;19;20022;-51
2023/10/07 07:22:50;;;;;;;2.40;1.80;;;;;;;13.88;100.00;98768.72;15280680;19;20027;-49
2023/10/07 07:28:17;;;;;;;2.90;1.83;;;;;;;13.99;100.00;98770.22;15275946;19;20014;-54
2023/10/07 07:33:43;;;;;;;2.90;1.70;;;;;;;14.08;100.00;98758.34;15279502;19;20018;-52
2023/10/07 07:39:09;;;;;;;2.80;1.70;;;;;;;14.16;100.00;98755.59;15272388;19;20024;-51
2023/10/07 07:44:37;;;;;;;2.85;1.80;;;;;;;14.26;100.00;98765.38;15273479;19;20021;-52
2023/10/07 07:50:06;;;;;;;2.53;1.60;;;;;;;14.36;100.00;98766.00;15279619;19;20029;-48
2023/10/07 07:55:32;;;;;;;3.60;1.90;;;;;;;14.42;100.00;98764.47;15276873;19;20665;-53
2023/10/07 08:01:05;;;;;;;4.20;2.00;;;;;;;14.48;100.00;98767.31;15271553;19;20022;-52
2023/10/07 08:06:31;;;;;;;3.45;1.80;;;;;;;14.56;100.00;98771.84;15273012;19;20114;-52
2023/10/07 08:11:57;;;;;;;2.78;1.83;;;;;;;14.67;100.00;98762.47;15279723;19;20019;-51
2023/10/07 08:17:27;;;;;;;3.35;1.67;;;;;;;14.77;100.00;98767.66;15275789;19;20018;-49
2023/10/07 08:22:52;;;;;;;3.00;1.70;;;;;;;14.89;100.00;98771.66;15279048;19;20014;-49
2023/10/07 08:28:23;;;;;;;3.20;2.03;;;;;;;15.03;100.00;98769.19;15272483;19;20006;-51
2023/10/07 08:34:09;;;;;;;3.10;1.60;;;;;;;15.10;100.00;98768.28;15268623;19;20479;-50
2023/10/07 08:39:44;;;;;;;2.55;1.67;;;;;;;15.21;100.00;98774.28;15270585;19;20028;-50
2023/10/07 08:45:14;;;;;;;2.25;1.65;;;;;;;15.28;100.00;98775.22;15283438;19;20045;-54
2023/10/07 08:50:55;;;;;;;3.33;1.80;;;;;;;15.38;100.00;98778.53;15260725;19;20483;-49
2023/10/07 08:56:30;;;;;;;2.47;1.77;;;;;;;15.42;100.00;98776.28;15277408;19;20086;-50
2023/10/07 09:01:57;;;;;;;4.22;2.00;;;;;;;15.59;100.00;98776.16;15282279;19;20010;-54
2023/10/07 09:07:30;;;;;;;3.67;1.67;;;;;;;15.71;100.00;98775.50;15273885;19;20025;-52
2023/10/07 09:13:04;;;;;;;3.08;1.50;;;;;;;15.99;100.00;98761.31;15281404;19;20021;-53
2023/10/07 09:18:37;;;;;;;3.03;1.83;;;;;;;16.17;100.00;98763.63;15278323;19;20016;-51
2023/10/07 09:24:13;;;;;;;5.05;1.55;;;;;;;16.27;100.00;98782.38;15280734;19;20021;-54
2023/10/07 09:29:38;;;;;;;4.00;1.60;;;;;;;16.32;100.00;98798.94;15278132;19;20025;-51
2023/10/07 09:35:19;;;;;;;2.42;1.60;;;;;;;16.44;100.00;98801.19;15280689;19;20031;-48
2023/10/07 09:46:27;;;;;;;2.10;1.50;;;;;;;16.64;100.00;98771.50;15277038;19;20093;-53
2023/10/07 09:52:02;;;;;;;2.30;1.60;;;;;;;16.74;100.00;98758.44;15277259;19;20086;-55
2023/10/07 09:57:42;;;;;;;2.33;1.60;;;;;;;16.89;100.00;98754.81;15274036;19;20019;-50
2023/10/07 10:03:36;;;;;;;5.38;1.77;;;;;;;16.93;100.00;98746.06;15277996;19;20018;-53
2023/10/07 10:09:09;;;;;;;3.08;1.92;;;;;;;16.93;100.00;98758.84;15272063;19;20017;-51
2023/10/07 10:14:56;;;;;;;2.25;1.70;;;;;;;17.06;100.00;98760.88;15275566;19;20020;-55
2023/10/07 10:20:21;;;;;;;2.38;1.50;;;;;;;17.15;100.00;98754.25;15274462;19;20018;-51
2023/10/07 10:25:48;;;;;;;3.58;1.50;;;;;;;17.23;100.00;98748.66;15275601;19;20374;-52
2023/10/07 10:31:31;;;;;;;2.47;1.63;;;;;;;17.17;100.00;98754.91;15276175;19;20074;-52
2023/10/07 10:39:25;;;;;;;1.45;0.95;;;;;;;18.40;100.00;98739.97;15343520;19;20410;-57
2023/10/07 10:49:44;;;;;;;2.70;1.70;;;;;;;18.52;100.00;98763.94;15193422;19;20081;-48
2023/10/07 10:55:11;;;;;;;2.15;1.70;;;;;;;18.22;100.00;98813.31;14773631;19;5012529;-46
2023/10/07 11:00:37;;;;;;;2.42;1.48;;;;;;;18.11;100.00;98821.03;15350628;19;20018;-54
2023/10/07 11:06:07;;;;;;;3.95;1.77;;;;;;;17.97;100.00;98801.03;15349474;19;20423;-54
2023/10/07 11:11:35;;;;;;;3.20;2.10;;;;;;;17.90;100.00;98772.00;15351059;19;20014;-56
2023/10/07 11:17:03;;;;;;;2.63;1.80;;;;;;;17.90;100.00;98752.91;15345304;19;20018;-54
2023/10/07 11:22:31;;;;;;;2.33;1.70;;;;;;;17.95;100.00;98720.44;15350893;19;20368;-53
2023/10/07 11:27:58;;;;;;;4.53;1.88;;;;;;;17.95;100.00;98690.44;15349160;19;20022;-54
2023/10/07 11:33:24;;;;;;;1.85;1.52;;;;;;;18.03;100.00;98673.97;15353178;19;20031;-55
2023/10/07 11:38:53;;;;;;;2.28;1.65;;;;;;;18.17;100.00;98669.41;15347177;19;20020;-55
2023/10/07 11:44:19;;;;;;;1.77;1.50;;;;;;;18.25;100.00;98658.28;15351813;19;20031;-52
2023/10/07 11:49:51;;;;;;;3.55;1.48;;;;;;;18.24;100.00;98647.59;15341695;19;20024;-56
2023/10/07 11:55:20;;;;;;;2.17;1.33;;;;;;;18.21;100.00;98653.47;15349306;19;20037;-54
2023/10/07 12:00:44;;;;;;;1.38;1.13;;;;;;;18.16;100.00;98626.81;15295454;19;20111;-51
2023/10/07 12:06:09;;;;;;;3.20;1.50;;;;;;;18.12;100.00;98634.56;15288818;19;20040;-52
2023/10/07 12:11:36;;;;;;;2.20;1.40;;;;;;;18.04;100.00;98615.69;15291568;19;20508;-54
2023/10/07 12:17:04;;;;;;;2.10;1.52;;;;;;;17.97;100.00;98609.34;15288285;19;20351;-55
2023/10/07 12:22:29;;;;;;;3.00;1.67;;;;;;;17.91;100.00;98618.31;15281935;19;20025;-54
2023/10/07 12:27:56;;;;;;;2.95;1.58;;;;;;;17.87;100.00;98616.00;15285461;19;20082;-53
2023/10/07 12:33:21;;;;;;;1.95;1.45;;;;;;;17.81;100.00;98595.03;15288079;19;20085;-53
2023/10/07 12:38:54;;;;;;;1.95;1.30;;;;;;;17.77;100.00;98612.81;15283150;19;20486;-54
2023/10/07 12:44:22;;;;;;;3.47;1.50;;;;;;;17.80;100.00;98604.25;15287996;19;20021;-54
2023/10/07 12:55:12;;;;;;;1.15;1.00;;;;;;;18.07;100.00;98620.69;15280466;19;20019;-54
2023/10/07 13:00:41;;;;;;;3.90;1.02;;;;;;;18.28;100.00;98621.63;15286825;19;20035;-56
2023/10/07 13:06:08;;;;;;;2.45;1.20;;;;;;;18.45;100.00;98641.16;15286115;19;20031;-53
2023/10/07 13:11:32;;;;;;;1.63;1.00;;;;;;;18.60;100.00;98647.25;15285792;19;20403;-56
2023/10/07 13:17:01;;;;;;;1.17;1.00;;;;;;;18.78;100.00;98649.38;15282576;19;20018;-52
2023/10/07 13:22:25;;;;;;;2.55;1.20;;;;;;;18.90;100.00;98627.75;15281947;19;20027;-53
2023/10/07 13:27:55;;;;;;;1.98;1.10;;;;;;;19.07;100.00;98624.59;15272290;19;20011;-54
2023/10/07 13:33:24;;;;;;;2.78;1.13;;;;;;;19.16;100.00;98633.44;15284276;19;20081;-54
2023/10/07 13:38:50;;;;;;;1.80;1.17;;;;;;;19.12;100.00;98629.44;15279700;19;20085;-52
2023/10/07 13:44:15;;;;;;;2.17;1.30;;;;;;;18.98;100.00;98626.72;15282378;19;20415;-54
2023/10/07 13:49:50;;;;;;;1.63;1.10;;;;;;;18.87;100.00;98619.16;15275857;19;20025;-53
2023/10/07 13:55:22;;;;;;;2.15;1.10;;;;;;;18.82;100.00;98627.94;15281849;19;20010;-55
2023/10/07 14:00:51;;;;;;;2.17;1.30;;;;;;;18.74;100.00;98634.47;15277714;19;20034;-57
2023/10/07 14:06:20;;;;;;;3.10;1.35;;;;;;;18.65;100.00;98619.31;15280202;19;20434;-55
2023/10/07 14:11:45;;;;;;;1.92;1.23;;;;;;;18.60;100.00;98619.13;15277730;19;20758;-55
2023/10/07 14:17:10;;;;;;;7.53;1.65;;;;;;;18.56;100.00;98609.69;15279214;19;20035;-57
2023/10/07 14:22:40;;;;;;;4.22;1.73;;;;;;;18.54;100.00;98628.13;15283368;19;20021;-54
2023/10/07 14:28:05;;;;;;;2.63;1.60;;;;;;;18.61;100.00;98637.19;15277770;19;20370;-53
2023/10/07 14:33:32;;;;;;;4.40;1.70;;;;;;;18.94;100.00;98628.19;15284364;19;20022;-53
2023/10/07 14:38:59;;;;;;;4.70;1.70;;;;;;;19.27;100.00;98616.38;15283173;19;20018;-56
2023/10/07 14:44:23;;;;;;;3.40;1.63;;;;;;;19.48;100.00;98619.91;15284574;19;20019;-52
2023/10/07 14:49:55;;;;;;;5.00;1.50;;;;;;;19.35;100.00;98612.59;15280614;19;20019;-54
2023/10/07 14:55:22;;;;;;;2.50;1.60;;;;;;;19.02;100.00;98608.84;15283309;19;20018;-56
2023/10/07 15:00:53;;;;;;;2.75;1.50;;;;;;;18.79;100.00;98606.56;15278905;19;20472;-54
2023/10/07 15:06:18;;;;;;;3.25;1.67;;;;;;;18.53;100.00;98615.53;15280126;19;20022;-55
2023/10/07 15:11:45;;;;;;;2.40;1.50;;;;;;;18.36;100.00;98612.38;15282575;19;20022;-57
2023/10/07 15:17:12;;;;;;;4.13;1.75;;;;;;;18.21;100.00;98598.91;15279031;19;20463;-56
2023/10/07 15:22:37;;;;;;;3.90;1.80;;;;;;;18.09;100.00;98585.91;15281571;19;20032;-55
2023/10/07 15:28:05;;;;;;;4.13;1.90;;;;;;;18.04;100.00;98599.31;15279501;19;20022;-53
2023/10/07 15:33:29;;;;;;;4.72;1.70;;;;;;;17.95;100.00;98595.03;15282449;19;20110;-55
2023/10/07 15:38:57;;;;;;;2.42;1.77;;;;;;;17.83;100.00;98592.09;15290591;19;20011;-54
2023/10/07 15:44:24;;;;;;;5.88;1.88;;;;;;;17.75;100.00;98575.91;15296039;19;20544;-59
2023/10/07 15:50:01;;;;;;;4.93;1.80;;;;;;;17.65;100.00;98574.41;15287942;19;20037;-58
2023/10/07 15:55:27;;;;;;;3.33;1.88;;;;;;;17.54;100.00;98567.66;15292536;19;20106;-59
2023/10/07 16:00:55;;;;;;;4.28;1.88;;;;;;;17.46;100.00;98584.19;15292443;19;20081;-58
2023/10/07 16:06:21;;;;;;;5.80;1.80;;;;;;;17.33;100.00;98581.41;15279538;19;20014;-58
2023/10/07 16:11:45;;;;;;;3.67;1.88;;;;;;;17.28;100.00;98573.81;15292934;19;20014;-58
2023/10/07 16:17:12;;;;;;;2.97;1.60;;;;;;;17.24;100.00;98567.09;15290720;19;20028;-59
2023/10/07 16:22:37;;;;;;;3.40;1.75;;;;;;;17.24;100.00;98576.09;15290707;19;20031;-58
2023/10/07 16:28:04;;;;;;;4.97;1.80;;;;;;;17.17;100.00;98556.16;15285149;19;20018;-57
2023/10/07 16:33:33;;;;;;;2.25;1.75;;;;;;;17.09;100.00;98559.06;15291687;19;20033;-57
2023/10/07 16:39:00;;;;;;;2.70;1.65;;;;;;;17.06;100.00;98570.34;15281499;19;20753;-56
2023/10/07 16:44:24;;;;;;;2.67;1.73;;;;;;;17.08;100.00;98570.97;15291909;19;20487;-56
2023/10/07 16:49:59;;;;;;;3.53;1.65;;;;;;;17.07;100.00;98582.91;15284076;19;20018;-57
2023/10/07 16:55:24;;;;;;;4.63;1.70;;;;;;;17.05;100.00;98580.38;15287243;19;20020;-57
2023/10/07 17:00:48;;;;;;;6.85;1.80;;;;;;;17.02;100.00;98585.38;15191637;19;20377;-55
2023/10/07 17:06:15;;;;;;;3.40;1.92;;;;;;;17.02;100.00;98588.09;15178416;19;20025;-54
2023/10/07 17:11:40;;;;;;;3.70;1.98;;;;;;;17.00;100.00;98592.88;15282351;19;20010;-59
2023/10/07 17:17:06;;;;;;;4.30;1.75;;;;;;;17.02;100.00;98588.09;15285442;19;20653;-57
2023/10/07 17:22:33;;;;;;;4.85;1.70;;;;;;;17.04;100.00;98580.56;15286699;19;20018;-58
2023/10/07 17:27:58;;;;;;;4.72;1.90;;;;;;;17.01;100.00;98579.09;15284040;19;20022;-59
2023/10/07 17:33:24;;;;;;;2.22;1.60;;;;;;;17.02;100.00;98579.94;15286014;19;20011;-58
2023/10/07 17:38:52;;;;;;;4.05;1.90;;;;;;;17.00;100.00;98571.13;15282310;19;20098;-58
2023/10/07 17:44:18;;;;;;;2.90;1.77;;;;;;;16.97;100.00;98583.25;15279736;19;20425;-59
2023/10/07 17:49:49;;;;;;;3.38;1.88;;;;;;;16.97;100.00;98577.81;15279991;19;20500;-59
2023/10/07 17:55:18;;;;;;;2.70;1.90;;;;;;;16.96;100.00;98586.19;15283720;19;20344;-58
2023/10/07 18:00:43;;;;;;;4.13;2.00;;;;;;;16.93;100.00;98593.66;15283962;19;20475;-59
2023/10/07 18:06:10;;;;;;;3.67;1.83;;;;;;;16.93;100.00;98604.56;15283596;19;20022;-57
2023/10/07 18:11:37;;;;;;;3.20;1.90;;;;;;;16.94;100.00;98610.84;15280326;19;20018;-57
2023/10/07 18:17:02;;;;;;;3.03;1.88;;;;;;;16.91;100.00;98603.91;15277372;19;20018;-60
2023/10/07 18:22:26;;;;;;;5.03;2.10;;;;;;;16.88;100.00;98609.72;15284894;19;20046;-58
2023/10/07 18:27:53;;;;;;;3.35;1.98;;;;;;;16.87;100.00;98616.25;15281764;19;20025;-57
2023/10/07 18:33:18;;;;;;;3.08;2.10;;;;;;;16.85;100.00;98610.16;15217887;19;20017;-59
2023/10/07 18:38:43;;;;;;;7.28;2.15;;;;;;;16.81;100.00;98600.69;15279387;19;20403;-59
2023/10/07 18:44:10;;;;;;;5.88;1.98;;;;;;;16.78;100.00;98606.53;15282374;19;20026;-57
2023/10/07 18:49:45;;;;;;;2.83;1.80;;;;;;;16.80;100.00;98601.72;15273228;19;20018;-56
2023/10/07 18:55:12;;;;;;;5.53;2.05;;;;;;;16.88;100.00;98585.25;15281822;19;20089;-59
2023/10/07 19:00:39;;;;;;;5.07;1.90;;;;;;;16.92;100.00;98575.66;15278468;19;20362;-58
2023/10/07 19:06:06;;;;;;;2.75;1.63;;;;;;;16.96;100.00;98578.03;15175728;19;2004278;-59
2023/10/07 19:11:30;;;;;;;2.88;1.70;;;;;;;16.97;100.00;98588.69;15291457;19;20260;-57
2023/10/07 19:16:57;;;;;;;3.78;1.92;;;;;;;16.97;100.00;98596.88;15294786;19;20959;-58
2023/10/07 19:22:22;;;;;;;3.88;2.05;;;;;;;16.94;100.00;98605.41;15292394;19;20342;-53
2023/10/07 19:27:47;;;;;;;3.42;1.50;;;;;;;17.05;100.00;98623.91;15290443;19;20014;-51
2023/10/07 19:33:15;;;;;;;5.18;1.98;;;;;;;17.20;100.00;98601.19;15295109;19;20610;-50
2023/10/07 19:38:42;;;;;;;2.72;1.88;;;;;;;17.33;100.00;98586.84;15288671;19;20014;-49
2023/10/07 19:44:06;;;;;;;2.90;1.60;;;;;;;17.46;100.00;98586.06;15291836;19;20379;-51
2023/10/07 19:49:33;;;;;;;2.00;1.63;;;;;;;17.58;100.00;98562.63;15284168;19;20015;-49
2023/10/07 19:54:58;;;;;;;2.88;1.90;;;;;;;17.64;100.00;98577.34;15290547;19;20033;-49
2023/10/07 20:00:25;;;;;;;2.92;1.70;;;;;;;17.75;100.00;98579.47;15290911;19;20015;-50
2023/10/07 20:05:53;;;;;;;2.42;1.60;;;;;;;17.91;100.00;98577.44;15289984;19;20355;-50
2023/10/07 20:11:24;;;;;;;5.40;1.95;;;;;;;18.07;100.00;98568.91;15286886;19;20015;-53
2023/10/07 20:16:49;;;;;;;4.07;1.80;;;;;;;18.22;100.00;98563.28;15289937;19;20028;-50
2023/10/07 20:22:17;;;;;;;3.13;1.67;;;;;;;18.29;100.00;98569.56;15286359;19;20404;-52
2023/10/07 20:27:43;;;;;;;2.88;1.60;;;;;;;18.32;100.00;98562.84;15285240;19;20074;-53
2023/10/07 20:33:08;;;;;;;3.47;1.70;;;;;;;18.40;100.00;98554.50;15289995;19;20032;-51
2023/10/07 20:38:35;;;;;;;4.15;1.65;;;;;;;18.54;100.00;98560.78;15286297;19;20037;-51
2023/10/07 20:44:00;;;;;;;2.50;1.55;;;;;;;18.56;100.00;98568.75;15288667;19;20018;-48
2023/10/07 20:49:31;;;;;;;3.28;1.80;;;;;;;18.58;100.00;98574.84;15283483;19;20018;-49
2023/10/07 20:54:58;;;;;;;3.20;1.60;;;;;;;18.69;100.00;98567.94;15285213;19;20006;-51
2023/10/07 21:00:25;;;;;;;6.20;1.77;;;;;;;18.82;100.00;98559.69;15286752;19;20022;-49
2023/10/07 21:05:50;;;;;;;2.38;1.70;;;;;;;18.90;100.00;98545.84;14774976;19;10000945;-48
2023/10/07 21:11:17;;;;;;;4.40;1.67;;;;;;;18.99;100.00;98567.50;15283388;19;20019;-54
2023/10/07 21:16:42;;;;;;;2.42;1.70;;;;;;;19.00;100.00;98553.63;15283913;19;20078;-50
2023/10/07 21:22:07;;;;;;;3.92;1.85;;;;;;;19.05;100.00;98561.19;15284234;19;20483;-52
2023/10/07 21:27:34;;;;;;;2.58;1.70;;;;;;;19.06;100.00;98562.84;15278214;19;20021;-53
2023/10/07 21:32:59;;;;;;;3.97;2.03;;;;;;;19.03;100.00;98558.66;15277505;19;20345;-50
2023/10/07 21:38:24;;;;;;;5.47;1.80;;;;;;;18.97;100.00;98548.59;15282090;19;20012;-48
2023/10/07 21:43:51;;;;;;;3.05;1.70;;;;;;;18.96;100.00;98563.31;15282639;19;20014;-53
2023/10/07 21:49:23;;;;;;;2.95;1.70;;;;;;;18.93;100.00;98596.44;15277446;19;20564;-53
2023/10/07 21:54:48;;;;;;;7.90;1.80;;;;;;;18.92;100.00;98575.66;15284451;19;20020;-52
2023/10/07 22:00:34;;;;;;;4.40;1.98;;;;;;;18.94;100.00;98592.72;15275703;19;20019;-49
2023/10/07 22:05:59;;;;;;;3.80;1.92;;;;;;;18.94;100.00;98577.16;15282301;19;20023;-56
2023/10/07 22:11:24;;;;;;;4.50;1.77;;;;;;;18.92;100.00;98578.41;15280313;19;20011;-56
2023/10/07 22:16:53;;;;;;;3.47;2.00;;;;;;;18.91;100.00;98610.31;15280608;19;20649;-51
2023/10/07 22:22:20;;;;;;;3.75;1.90;;;;;;;18.87;100.00;98570.84;15273586;19;20630;-50
2023/10/07 22:27:47;;;;;;;4.13;2.10;;;;;;;18.83;100.00;98566.03;15276533;19;20026;-51
2023/10/07 22:33:16;;;;;;;3.15;1.85;;;;;;;18.81;100.00;98557.19;15270897;19;20025;-53
2023/10/07 22:38:41;;;;;;;4.75;1.90;;;;;;;18.77;100.00;98592.25;15279455;19;20027;-52
2023/10/07 22:44:15;;;;;;;6.05;2.10;;;;;;;18.74;100.00;98565.38;15280857;19;20017;-55
2023/10/07 22:49:51;;;;;;;4.32;1.80;;;;;;;18.73;100.00;98548.19;15276839;19;20023;-53
2023/10/07 22:55:25;;;;;;;4.55;2.10;;;;;;;18.69;100.00;98560.56;15280958;19;20467;-55
2023/10/07 23:00:54;;;;;;;4.38;1.80;;;;;;;18.66;100.00;98555.53;15280320;19;20076;-52
2023/10/07 23:06:37;;;;;;;3.80;2.00;;;;;;;18.63;100.00;98564.16;15272520;19;20027;-57
2023/10/07 23:12:04;;;;;;;3.03;1.83;;;;;;;18.55;100.00;98583.44;15276914;19;20809;-53
2023/10/07 23:17:30;;;;;;;4.40;1.95;;;;;;;18.54;100.00;98592.66;15278465;19;20029;-58
2023/10/07 23:23:11;;;;;;;5.22;1.98;;;;;;;18.52;100.00;98601.06;15279602;19;20542;-53
2023/10/07 23:28:37;;;;;;;5.10;1.70;;;;;;;18.50;100.00;98588.69;15276434;19;20025;-58
2023/10/07 23:34:28;;;;;;;5.03;2.10;;;;;;;18.51;100.00;98617.66;15278712;19;20017;-54
2023/10/07 23:39:57;;;;;;;2.65;1.80;;;;;;;18.57;100.00;98589.53;15271958;19;20003;-53
2023/10/07 23:45:24;;;;;;;3.90;2.00;;;;;;;18.56;100.00;98604.22;15278331;19;20025;-59
2023/10/07 23:50:59;;;;;;;2.85;1.70;;;;;;;18.51;100.00;98604.03;15274246;19;20496;-54
2023/10/07 23:56:27;;;;;;;5.65;2.03;;;;;;;18.53;100.00;98615.53;15287473;19;20110;-54
